sensor_id;sensor_type;location;lat;lon;timestamp;P1;durP1;ratioP1;P2;durP2;ratioP2
59310;SDS011;45078;51.654;21.250;2024-03-02T00:02:14;34.28;;;15.38;;
59310;SDS011;45078;51.654;21.250;2024-03-02T00:04:40;30.23;;;13.50;;
59310;SDS011;45078;51.654;21.250;2024-03-02T00:07:09;30.67;;;15.55;;
59310;SDS011;45078;51.654;21.250;2024-03-02T00:09:35;27.98;;;13.77;;
59310;SDS011;45078;51.654;21.250;2024-03-02T00:12:01;37.83;;;17.25;;
59310;SDS011;45078;51.654;21.250;2024-03-02T00:14:31;27.60;;;14.25;;
59310;SDS011;45078;51.654;21.250;2024-03-02T00:16:57;28.23;;;14.43;;
59310;SDS011;45078;51.654;21.250;2024-03-02T00:19:23;31.13;;;14.75;;
59310;SDS011;45078;51.654;21.250;2024-03-02T00:21:50;27.52;;;12.05;;
59310;SDS011;45078;51.654;21.250;2024-03-02T00:24:20;25.85;;;12.52;;
59310;SDS011;45078;51.654;21.250;2024-03-02T00:26:51;30.90;;;14.93;;
59310;SDS011;45078;51.654;21.250;2024-03-02T00:29:17;32.80;;;14.65;;
59310;SDS011;45078;51.654;21.250;2024-03-02T00:31:45;27.35;;;11.52;;
59310;SDS011;45078;51.654;21.250;2024-03-02T00:34:11;29.08;;;14.10;;
59310;SDS011;45078;51.654;21.250;2024-03-02T00:36:38;28.05;;;12.43;;
59310;SDS011;45078;51.654;21.250;2024-03-02T00:39:04;23.25;;;11.85;;
59310;SDS011;45078;51.654;21.250;2024-03-02T00:41:33;32.88;;;15.27;;
59310;SDS011;45078;51.654;21.250;2024-03-02T00:46:38;33.58;;;16.10;;
59310;SDS011;45078;51.654;21.250;2024-03-02T00:51:46;27.52;;;12.13;;
59310;SDS011;45078;51.654;21.250;2024-03-02T00:54:20;10.82;;;6.20;;
59310;SDS011;45078;51.654;21.250;2024-03-02T00:56:49;20.50;;;10.80;;
59310;SDS011;45078;51.654;21.250;2024-03-02T00:59:15;32.88;;;14.35;;
59310;SDS011;45078;51.654;21.250;2024-03-02T01:01:41;29.75;;;12.40;;
59310;SDS011;45078;51.654;21.250;2024-03-02T01:04:07;29.77;;;14.32;;
59310;SDS011;45078;51.654;21.250;2024-03-02T01:06:33;32.08;;;13.85;;
59310;SDS011;45078;51.654;21.250;2024-03-02T01:08:59;17.80;;;9.10;;
59310;SDS011;45078;51.654;21.250;2024-03-02T01:11:25;26.30;;;13.35;;
59310;SDS011;45078;51.654;21.250;2024-03-02T01:13:51;29.05;;;13.93;;
59310;SDS011;45078;51.654;21.250;2024-03-02T01:16:17;34.80;;;14.18;;
59310;SDS011;45078;51.654;21.250;2024-03-02T01:18:43;29.98;;;13.50;;
59310;SDS011;45078;51.654;21.250;2024-03-02T01:21:09;26.40;;;11.55;;
59310;SDS011;45078;51.654;21.250;2024-03-02T01:23:34;26.17;;;11.45;;
59310;SDS011;45078;51.654;21.250;2024-03-02T01:26:00;24.83;;;13.63;;
59310;SDS011;45078;51.654;21.250;2024-03-02T01:28:25;27.05;;;12.82;;
59310;SDS011;45078;51.654;21.250;2024-03-02T01:30:51;22.30;;;11.55;;
59310;SDS011;45078;51.654;21.250;2024-03-02T01:33:17;23.15;;;12.38;;
59310;SDS011;45078;51.654;21.250;2024-03-02T01:35:43;29.00;;;13.40;;
59310;SDS011;45078;51.654;21.250;2024-03-02T01:38:09;28.05;;;13.88;;
59310;SDS011;45078;51.654;21.250;2024-03-02T01:40:35;26.33;;;11.95;;
59310;SDS011;45078;51.654;21.250;2024-03-02T01:43:01;28.20;;;13.68;;
59310;SDS011;45078;51.654;21.250;2024-03-02T01:45:27;31.05;;;13.60;;
59310;SDS011;45078;51.654;21.250;2024-03-02T01:47:53;29.70;;;13.15;;
59310;SDS011;45078;51.654;21.250;2024-03-02T01:50:28;28.48;;;13.30;;
59310;SDS011;45078;51.654;21.250;2024-03-02T01:52:56;29.10;;;13.52;;
59310;SDS011;45078;51.654;21.250;2024-03-02T01:55:22;30.02;;;13.95;;
59310;SDS011;45078;51.654;21.250;2024-03-02T01:57:48;18.90;;;9.75;;
59310;SDS011;45078;51.654;21.250;2024-03-02T02:00:16;29.17;;;12.85;;
59310;SDS011;45078;51.654;21.250;2024-03-02T02:02:42;22.65;;;12.02;;
59310;SDS011;45078;51.654;21.250;2024-03-02T02:05:08;28.50;;;12.88;;
59310;SDS011;45078;51.654;21.250;2024-03-02T02:07:34;29.92;;;15.00;;
59310;SDS011;45078;51.654;21.250;2024-03-02T02:10:00;29.40;;;13.85;;
59310;SDS011;45078;51.654;21.250;2024-03-02T02:12:26;31.13;;;15.77;;
59310;SDS011;45078;51.654;21.250;2024-03-02T02:14:52;23.23;;;10.63;;
59310;SDS011;45078;51.654;21.250;2024-03-02T02:17:18;16.00;;;7.32;;
59310;SDS011;45078;51.654;21.250;2024-03-02T02:19:44;31.77;;;14.25;;
59310;SDS011;45078;51.654;21.250;2024-03-02T02:22:10;26.83;;;13.48;;
59310;SDS011;45078;51.654;21.250;2024-03-02T02:24:35;24.63;;;12.52;;
59310;SDS011;45078;51.654;21.250;2024-03-02T02:27:04;22.10;;;11.10;;
59310;SDS011;45078;51.654;21.250;2024-03-02T02:29:30;27.75;;;14.18;;
59310;SDS011;45078;51.654;21.250;2024-03-02T02:31:55;28.92;;;13.60;;
59310;SDS011;45078;51.654;21.250;2024-03-02T02:34:21;31.77;;;14.23;;
59310;SDS011;45078;51.654;21.250;2024-03-02T02:36:47;23.02;;;11.63;;
59310;SDS011;45078;51.654;21.250;2024-03-02T02:39:13;28.88;;;13.93;;
59310;SDS011;45078;51.654;21.250;2024-03-02T02:41:41;30.80;;;12.23;;
59310;SDS011;45078;51.654;21.250;2024-03-02T02:44:07;30.70;;;13.65;;
59310;SDS011;45078;51.654;21.250;2024-03-02T02:46:33;30.75;;;14.15;;
59310;SDS011;45078;51.654;21.250;2024-03-02T02:48:59;34.30;;;14.88;;
59310;SDS011;45078;51.654;21.250;2024-03-02T02:51:24;26.63;;;13.57;;
59310;SDS011;45078;51.654;21.250;2024-03-02T02:53:50;31.77;;;13.25;;
59310;SDS011;45078;51.654;21.250;2024-03-02T02:56:16;20.65;;;9.82;;
59310;SDS011;45078;51.654;21.250;2024-03-02T02:58:42;31.17;;;14.88;;
59310;SDS011;45078;51.654;21.250;2024-03-02T03:01:08;34.28;;;14.82;;
59310;SDS011;45078;51.654;21.250;2024-03-02T03:03:33;31.13;;;14.98;;
59310;SDS011;45078;51.654;21.250;2024-03-02T03:05:59;34.85;;;15.13;;
59310;SDS011;45078;51.654;21.250;2024-03-02T03:08:25;34.38;;;15.32;;
59310;SDS011;45078;51.654;21.250;2024-03-02T03:10:50;33.75;;;13.90;;
59310;SDS011;45078;51.654;21.250;2024-03-02T03:13:16;28.92;;;13.45;;
59310;SDS011;45078;51.654;21.250;2024-03-02T03:15:42;35.53;;;14.98;;
59310;SDS011;45078;51.654;21.250;2024-03-02T03:18:08;23.40;;;10.55;;
59310;SDS011;45078;51.654;21.250;2024-03-02T03:20:35;36.45;;;16.50;;
59310;SDS011;45078;51.654;21.250;2024-03-02T03:23:01;27.85;;;12.00;;
59310;SDS011;45078;51.654;21.250;2024-03-02T03:25:29;36.13;;;14.90;;
59310;SDS011;45078;51.654;21.250;2024-03-02T03:27:55;34.15;;;15.75;;
59310;SDS011;45078;51.654;21.250;2024-03-02T03:30:20;34.47;;;15.85;;
59310;SDS011;45078;51.654;21.250;2024-03-02T03:32:46;41.97;;;16.45;;
59310;SDS011;45078;51.654;21.250;2024-03-02T03:35:13;26.55;;;11.93;;
59310;SDS011;45078;51.654;21.250;2024-03-02T03:37:40;33.35;;;14.07;;
59310;SDS011;45078;51.654;21.250;2024-03-02T03:40:06;33.58;;;15.32;;
59310;SDS011;45078;51.654;21.250;2024-03-02T03:42:37;34.97;;;15.55;;
59310;SDS011;45078;51.654;21.250;2024-03-02T03:45:04;23.33;;;10.00;;
59310;SDS011;45078;51.654;21.250;2024-03-02T03:47:31;27.23;;;12.88;;
59310;SDS011;45078;51.654;21.250;2024-03-02T03:49:57;35.47;;;16.17;;
59310;SDS011;45078;51.654;21.250;2024-03-02T03:52:23;39.10;;;15.00;;
59310;SDS011;45078;51.654;21.250;2024-03-02T03:54:48;39.70;;;17.90;;
59310;SDS011;45078;51.654;21.250;2024-03-02T03:57:14;35.53;;;16.00;;
59310;SDS011;45078;51.654;21.250;2024-03-02T03:59:40;41.00;;;19.08;;
59310;SDS011;45078;51.654;21.250;2024-03-02T04:02:05;46.47;;;19.40;;
59310;SDS011;45078;51.654;21.250;2024-03-02T04:04:32;28.02;;;12.85;;
59310;SDS011;45078;51.654;21.250;2024-03-02T04:06:58;37.00;;;16.58;;
59310;SDS011;45078;51.654;21.250;2024-03-02T04:09:24;24.15;;;11.55;;
59310;SDS011;45078;51.654;21.250;2024-03-02T04:11:50;37.35;;;15.23;;
59310;SDS011;45078;51.654;21.250;2024-03-02T04:14:16;48.83;;;20.80;;
59310;SDS011;45078;51.654;21.250;2024-03-02T04:16:42;32.70;;;15.07;;
59310;SDS011;45078;51.654;21.250;2024-03-02T04:19:08;29.27;;;13.20;;
59310;SDS011;45078;51.654;21.250;2024-03-02T04:21:33;28.33;;;14.57;;
59310;SDS011;45078;51.654;21.250;2024-03-02T04:23:59;24.33;;;13.10;;
59310;SDS011;45078;51.654;21.250;2024-03-02T04:26:25;27.70;;;13.80;;
59310;SDS011;45078;51.654;21.250;2024-03-02T04:28:51;49.15;;;20.33;;
59310;SDS011;45078;51.654;21.250;2024-03-02T04:31:20;42.08;;;17.00;;
59310;SDS011;45078;51.654;21.250;2024-03-02T04:33:46;33.20;;;17.52;;
59310;SDS011;45078;51.654;21.250;2024-03-02T04:36:12;38.60;;;16.98;;
59310;SDS011;45078;51.654;21.250;2024-03-02T04:38:38;50.00;;;18.60;;
59310;SDS011;45078;51.654;21.250;2024-03-02T04:41:04;58.50;;;21.63;;
59310;SDS011;45078;51.654;21.250;2024-03-02T04:43:33;53.55;;;19.23;;
59310;SDS011;45078;51.654;21.250;2024-03-02T04:45:59;39.47;;;16.02;;
59310;SDS011;45078;51.654;21.250;2024-03-02T04:48:25;57.58;;;21.25;;
59310;SDS011;45078;51.654;21.250;2024-03-02T04:50:51;41.70;;;17.25;;
59310;SDS011;45078;51.654;21.250;2024-03-02T04:53:16;55.45;;;22.23;;
59310;SDS011;45078;51.654;21.250;2024-03-02T04:55:42;62.05;;;24.13;;
59310;SDS011;45078;51.654;21.250;2024-03-02T04:58:08;58.63;;;21.92;;
59310;SDS011;45078;51.654;21.250;2024-03-02T05:00:34;64.38;;;23.67;;
59310;SDS011;45078;51.654;21.250;2024-03-02T05:03:00;51.47;;;20.65;;
59310;SDS011;45078;51.654;21.250;2024-03-02T05:05:26;62.92;;;22.35;;
59310;SDS011;45078;51.654;21.250;2024-03-02T05:07:52;54.42;;;21.15;;
59310;SDS011;45078;51.654;21.250;2024-03-02T05:10:18;47.90;;;18.17;;
59310;SDS011;45078;51.654;21.250;2024-03-02T05:12:43;70.95;;;24.88;;
59310;SDS011;45078;51.654;21.250;2024-03-02T05:15:12;60.55;;;22.77;;
59310;SDS011;45078;51.654;21.250;2024-03-02T05:17:39;48.08;;;19.45;;
59310;SDS011;45078;51.654;21.250;2024-03-02T05:20:08;62.42;;;23.77;;
59310;SDS011;45078;51.654;21.250;2024-03-02T05:22:34;26.77;;;14.65;;
59310;SDS011;45078;51.654;21.250;2024-03-02T05:25:00;49.65;;;18.25;;
59310;SDS011;45078;51.654;21.250;2024-03-02T05:27:27;45.00;;;18.45;;
59310;SDS011;45078;51.654;21.250;2024-03-02T05:29:53;48.53;;;19.20;;
59310;SDS011;45078;51.654;21.250;2024-03-02T05:32:19;39.85;;;16.60;;
59310;SDS011;45078;51.654;21.250;2024-03-02T05:34:44;59.70;;;21.27;;
59310;SDS011;45078;51.654;21.250;2024-03-02T05:37:10;76.20;;;26.77;;
59310;SDS011;45078;51.654;21.250;2024-03-02T05:39:36;48.78;;;21.00;;
59310;SDS011;45078;51.654;21.250;2024-03-02T05:42:02;66.47;;;21.27;;
59310;SDS011;45078;51.654;21.250;2024-03-02T05:44:28;68.00;;;22.27;;
59310;SDS011;45078;51.654;21.250;2024-03-02T05:46:54;65.00;;;20.65;;
59310;SDS011;45078;51.654;21.250;2024-03-02T05:49:20;67.20;;;23.40;;
59310;SDS011;45078;51.654;21.250;2024-03-02T05:51:46;45.45;;;19.27;;
59310;SDS011;45078;51.654;21.250;2024-03-02T05:54:11;43.83;;;16.17;;
59310;SDS011;45078;51.654;21.250;2024-03-02T05:56:37;74.80;;;25.60;;
59310;SDS011;45078;51.654;21.250;2024-03-02T05:59:03;57.50;;;23.23;;
59310;SDS011;45078;51.654;21.250;2024-03-02T06:01:34;77.18;;;25.13;;
59310;SDS011;45078;51.654;21.250;2024-03-02T06:04:00;71.10;;;22.95;;
59310;SDS011;45078;51.654;21.250;2024-03-02T06:06:26;75.45;;;28.15;;
59310;SDS011;45078;51.654;21.250;2024-03-02T06:08:51;65.95;;;25.80;;
59310;SDS011;45078;51.654;21.250;2024-03-02T06:11:21;62.58;;;20.23;;
59310;SDS011;45078;51.654;21.250;2024-03-02T06:13:47;87.40;;;29.13;;
59310;SDS011;45078;51.654;21.250;2024-03-02T06:16:12;88.90;;;25.15;;
59310;SDS011;45078;51.654;21.250;2024-03-02T06:18:38;62.53;;;19.65;;
59310;SDS011;45078;51.654;21.250;2024-03-02T06:21:04;66.95;;;25.63;;
59310;SDS011;45078;51.654;21.250;2024-03-02T06:23:30;92.63;;;27.40;;
59310;SDS011;45078;51.654;21.250;2024-03-02T06:25:55;69.03;;;24.92;;
59310;SDS011;45078;51.654;21.250;2024-03-02T06:28:21;77.55;;;26.27;;
59310;SDS011;45078;51.654;21.250;2024-03-02T06:30:47;70.55;;;22.63;;
59310;SDS011;45078;51.654;21.250;2024-03-02T06:33:13;79.03;;;27.08;;
59310;SDS011;45078;51.654;21.250;2024-03-02T06:35:38;45.15;;;18.90;;
59310;SDS011;45078;51.654;21.250;2024-03-02T06:38:04;82.05;;;25.23;;
59310;SDS011;45078;51.654;21.250;2024-03-02T06:40:30;72.40;;;26.83;;
59310;SDS011;45078;51.654;21.250;2024-03-02T06:42:55;84.75;;;25.52;;
59310;SDS011;45078;51.654;21.250;2024-03-02T06:45:21;64.88;;;22.85;;
59310;SDS011;45078;51.654;21.250;2024-03-02T06:47:47;58.75;;;21.67;;
59310;SDS011;45078;51.654;21.250;2024-03-02T06:50:12;75.88;;;24.27;;
59310;SDS011;45078;51.654;21.250;2024-03-02T06:52:38;83.90;;;24.35;;
59310;SDS011;45078;51.654;21.250;2024-03-02T06:55:04;89.28;;;28.85;;
59310;SDS011;45078;51.654;21.250;2024-03-02T06:57:30;93.32;;;31.70;;
59310;SDS011;45078;51.654;21.250;2024-03-02T06:59:56;92.75;;;28.25;;
59310;SDS011;45078;51.654;21.250;2024-03-02T07:02:24;88.18;;;28.20;;
59310;SDS011;45078;51.654;21.250;2024-03-02T07:04:52;80.68;;;26.33;;
59310;SDS011;45078;51.654;21.250;2024-03-02T07:07:20;54.58;;;20.42;;
59310;SDS011;45078;51.654;21.250;2024-03-02T07:09:46;57.95;;;19.95;;
59310;SDS011;45078;51.654;21.250;2024-03-02T07:12:12;53.72;;;20.02;;
59310;SDS011;45078;51.654;21.250;2024-03-02T07:14:38;46.22;;;17.25;;
59310;SDS011;45078;51.654;21.250;2024-03-02T07:17:23;80.68;;;25.63;;
59310;SDS011;45078;51.654;21.250;2024-03-02T07:19:48;90.25;;;29.27;;
59310;SDS011;45078;51.654;21.250;2024-03-02T07:22:14;95.82;;;29.67;;
59310;SDS011;45078;51.654;21.250;2024-03-02T07:24:40;85.85;;;28.77;;
59310;SDS011;45078;51.654;21.250;2024-03-02T07:27:06;91.50;;;28.58;;
59310;SDS011;45078;51.654;21.250;2024-03-02T07:29:33;88.63;;;27.08;;
59310;SDS011;45078;51.654;21.250;2024-03-02T07:31:58;87.80;;;29.80;;
59310;SDS011;45078;51.654;21.250;2024-03-02T07:34:24;87.85;;;27.73;;
59310;SDS011;45078;51.654;21.250;2024-03-02T07:36:49;64.13;;;23.70;;
59310;SDS011;45078;51.654;21.250;2024-03-02T07:39:15;84.18;;;27.42;;
59310;SDS011;45078;51.654;21.250;2024-03-02T07:41:41;96.63;;;26.50;;
59310;SDS011;45078;51.654;21.250;2024-03-02T07:44:07;106.03;;;31.63;;
59310;SDS011;45078;51.654;21.250;2024-03-02T07:46:33;90.55;;;29.02;;
59310;SDS011;45078;51.654;21.250;2024-03-02T07:48:58;108.68;;;31.42;;
59310;SDS011;45078;51.654;21.250;2024-03-02T07:51:24;55.47;;;26.48;;
59310;SDS011;45078;51.654;21.250;2024-03-02T07:53:50;98.25;;;32.33;;
59310;SDS011;45078;51.654;21.250;2024-03-02T07:56:15;81.18;;;28.25;;
59310;SDS011;45078;51.654;21.250;2024-03-02T07:58:47;99.38;;;30.77;;
59310;SDS011;45078;51.654;21.250;2024-03-02T08:01:14;97.97;;;28.80;;
59310;SDS011;45078;51.654;21.250;2024-03-02T08:03:40;95.40;;;29.73;;
59310;SDS011;45078;51.654;21.250;2024-03-02T08:06:06;70.97;;;21.67;;
59310;SDS011;45078;51.654;21.250;2024-03-02T08:08:31;85.05;;;29.35;;
59310;SDS011;45078;51.654;21.250;2024-03-02T08:10:57;94.65;;;28.73;;
59310;SDS011;45078;51.654;21.250;2024-03-02T08:13:23;109.68;;;32.28;;
59310;SDS011;45078;51.654;21.250;2024-03-02T08:15:48;56.47;;;20.08;;
59310;SDS011;45078;51.654;21.250;2024-03-02T08:18:14;114.82;;;32.35;;
59310;SDS011;45078;51.654;21.250;2024-03-02T08:20:40;71.90;;;22.63;;
59310;SDS011;45078;51.654;21.250;2024-03-02T08:23:06;109.72;;;31.45;;
59310;SDS011;45078;51.654;21.250;2024-03-02T08:25:33;98.50;;;30.25;;
59310;SDS011;45078;51.654;21.250;2024-03-02T08:27:58;89.07;;;29.08;;
59310;SDS011;45078;51.654;21.250;2024-03-02T08:30:24;102.85;;;33.33;;
59310;SDS011;45078;51.654;21.250;2024-03-02T08:32:50;89.75;;;26.83;;
59310;SDS011;45078;51.654;21.250;2024-03-02T08:35:16;104.72;;;32.08;;
59310;SDS011;45078;51.654;21.250;2024-03-02T08:37:42;104.50;;;32.35;;
59310;SDS011;45078;51.654;21.250;2024-03-02T08:40:08;87.20;;;28.27;;
59310;SDS011;45078;51.654;21.250;2024-03-02T08:42:35;100.22;;;30.85;;
59310;SDS011;45078;51.654;21.250;2024-03-02T08:45:01;56.53;;;22.48;;
59310;SDS011;45078;51.654;21.250;2024-03-02T08:47:27;76.55;;;26.52;;
59310;SDS011;45078;51.654;21.250;2024-03-02T08:49:53;111.63;;;30.20;;
59310;SDS011;45078;51.654;21.250;2024-03-02T08:52:18;104.00;;;32.17;;
59310;SDS011;45078;51.654;21.250;2024-03-02T08:54:44;75.20;;;25.80;;
59310;SDS011;45078;51.654;21.250;2024-03-02T08:57:09;101.78;;;32.72;;
59310;SDS011;45078;51.654;21.250;2024-03-02T08:59:35;108.50;;;32.50;;
59310;SDS011;45078;51.654;21.250;2024-03-02T09:02:01;75.35;;;26.23;;
59310;SDS011;45078;51.654;21.250;2024-03-02T09:04:27;61.28;;;22.25;;
59310;SDS011;45078;51.654;21.250;2024-03-02T09:06:54;101.07;;;31.88;;
59310;SDS011;45078;51.654;21.250;2024-03-02T09:09:20;90.65;;;29.15;;
59310;SDS011;45078;51.654;21.250;2024-03-02T09:11:46;66.70;;;24.50;;
59310;SDS011;45078;51.654;21.250;2024-03-02T09:14:12;104.32;;;31.90;;
59310;SDS011;45078;51.654;21.250;2024-03-02T09:16:39;81.47;;;23.92;;
59310;SDS011;45078;51.654;21.250;2024-03-02T09:19:05;94.50;;;28.42;;
59310;SDS011;45078;51.654;21.250;2024-03-02T09:21:31;81.30;;;29.15;;
59310;SDS011;45078;51.654;21.250;2024-03-02T09:23:57;80.90;;;26.40;;
59310;SDS011;45078;51.654;21.250;2024-03-02T09:26:23;96.88;;;30.35;;
59310;SDS011;45078;51.654;21.250;2024-03-02T09:28:50;68.80;;;24.35;;
59310;SDS011;45078;51.654;21.250;2024-03-02T09:31:15;91.72;;;31.38;;
59310;SDS011;45078;51.654;21.250;2024-03-02T09:33:41;96.93;;;30.27;;
59310;SDS011;45078;51.654;21.250;2024-03-02T09:36:16;99.60;;;30.50;;
59310;SDS011;45078;51.654;21.250;2024-03-02T09:38:47;75.95;;;24.23;;
59310;SDS011;45078;51.654;21.250;2024-03-02T09:41:13;75.63;;;27.75;;
59310;SDS011;45078;51.654;21.250;2024-03-02T09:43:39;76.78;;;26.70;;
59310;SDS011;45078;51.654;21.250;2024-03-02T09:46:06;46.80;;;20.88;;
59310;SDS011;45078;51.654;21.250;2024-03-02T09:48:35;76.80;;;27.63;;
59310;SDS011;45078;51.654;21.250;2024-03-02T09:51:02;46.97;;;18.52;;
59310;SDS011;45078;51.654;21.250;2024-03-02T09:53:30;82.80;;;30.25;;
59310;SDS011;45078;51.654;21.250;2024-03-02T09:55:58;48.90;;;22.17;;
59310;SDS011;45078;51.654;21.250;2024-03-02T09:58:24;86.60;;;29.98;;
59310;SDS011;45078;51.654;21.250;2024-03-02T10:00:50;64.35;;;23.13;;
59310;SDS011;45078;51.654;21.250;2024-03-02T10:03:16;47.60;;;20.30;;
59310;SDS011;45078;51.654;21.250;2024-03-02T10:05:44;83.65;;;31.63;;
59310;SDS011;45078;51.654;21.250;2024-03-02T10:08:09;75.32;;;27.58;;
59310;SDS011;45078;51.654;21.250;2024-03-02T10:10:38;71.82;;;24.10;;
59310;SDS011;45078;51.654;21.250;2024-03-02T10:13:09;62.22;;;24.75;;
59310;SDS011;45078;51.654;21.250;2024-03-02T10:15:36;56.72;;;21.92;;
59310;SDS011;45078;51.654;21.250;2024-03-02T10:18:03;69.47;;;24.63;;
59310;SDS011;45078;51.654;21.250;2024-03-02T10:20:29;69.80;;;24.15;;
59310;SDS011;45078;51.654;21.250;2024-03-02T10:23:09;49.17;;;20.27;;
59310;SDS011;45078;51.654;21.250;2024-03-02T10:25:39;57.55;;;23.73;;
59310;SDS011;45078;51.654;21.250;2024-03-02T10:28:04;57.80;;;23.15;;
59310;SDS011;45078;51.654;21.250;2024-03-02T10:30:31;74.05;;;27.55;;
59310;SDS011;45078;51.654;21.250;2024-03-02T10:32:58;81.68;;;30.05;;
59310;SDS011;45078;51.654;21.250;2024-03-02T10:35:23;53.80;;;22.70;;
59310;SDS011;45078;51.654;21.250;2024-03-02T10:37:50;64.35;;;25.10;;
59310;SDS011;45078;51.654;21.250;2024-03-02T10:40:17;61.58;;;25.10;;
59310;SDS011;45078;51.654;21.250;2024-03-02T10:42:46;65.13;;;26.08;;
59310;SDS011;45078;51.654;21.250;2024-03-02T10:45:13;60.53;;;24.77;;
59310;SDS011;45078;51.654;21.250;2024-03-02T10:47:41;75.15;;;28.25;;
59310;SDS011;45078;51.654;21.250;2024-03-02T10:50:09;52.13;;;21.42;;
59310;SDS011;45078;51.654;21.250;2024-03-02T10:52:35;69.18;;;27.48;;
59310;SDS011;45078;51.654;21.250;2024-03-02T10:55:01;81.95;;;30.15;;
59310;SDS011;45078;51.654;21.250;2024-03-02T10:57:32;54.08;;;23.65;;
59310;SDS011;45078;51.654;21.250;2024-03-02T11:00:14;54.60;;;21.92;;
59310;SDS011;45078;51.654;21.250;2024-03-02T11:02:46;67.60;;;24.00;;
59310;SDS011;45078;51.654;21.250;2024-03-02T11:05:27;68.07;;;25.50;;
59310;SDS011;45078;51.654;21.250;2024-03-02T11:08:06;61.20;;;24.55;;
59310;SDS011;45078;51.654;21.250;2024-03-02T11:11:06;43.88;;;17.85;;
59310;SDS011;45078;51.654;21.250;2024-03-02T11:13:54;39.30;;;18.88;;
59310;SDS011;45078;51.654;21.250;2024-03-02T11:16:31;51.00;;;22.38;;
59310;SDS011;45078;51.654;21.250;2024-03-02T11:19:02;58.70;;;23.10;;
59310;SDS011;45078;51.654;21.250;2024-03-02T11:21:30;58.05;;;24.02;;
59310;SDS011;45078;51.654;21.250;2024-03-02T11:23:58;63.60;;;26.80;;
59310;SDS011;45078;51.654;21.250;2024-03-02T11:26:23;63.70;;;26.27;;
59310;SDS011;45078;51.654;21.250;2024-03-02T11:28:49;50.42;;;22.40;;
59310;SDS011;45078;51.654;21.250;2024-03-02T11:31:15;46.08;;;19.77;;
59310;SDS011;45078;51.654;21.250;2024-03-02T11:33:41;59.47;;;24.83;;
59310;SDS011;45078;51.654;21.250;2024-03-02T11:36:08;61.30;;;24.98;;
59310;SDS011;45078;51.654;21.250;2024-03-02T11:38:35;65.38;;;27.42;;
59310;SDS011;45078;51.654;21.250;2024-03-02T11:41:02;66.45;;;27.85;;
59310;SDS011;45078;51.654;21.250;2024-03-02T11:43:32;53.78;;;23.38;;
59310;SDS011;45078;51.654;21.250;2024-03-02T11:45:58;65.70;;;25.40;;
59310;SDS011;45078;51.654;21.250;2024-03-02T11:48:25;60.38;;;24.65;;
59310;SDS011;45078;51.654;21.250;2024-03-02T11:50:51;64.32;;;25.08;;
59310;SDS011;45078;51.654;21.250;2024-03-02T11:53:18;47.33;;;19.55;;
59310;SDS011;45078;51.654;21.250;2024-03-02T11:55:45;59.00;;;25.95;;
59310;SDS011;45078;51.654;21.250;2024-03-02T11:58:14;44.60;;;20.70;;
59310;SDS011;45078;51.654;21.250;2024-03-02T12:00:45;59.38;;;25.00;;
59310;SDS011;45078;51.654;21.250;2024-03-02T12:03:12;53.00;;;21.75;;
59310;SDS011;45078;51.654;21.250;2024-03-02T12:05:39;57.08;;;24.02;;
59310;SDS011;45078;51.654;21.250;2024-03-02T12:08:05;61.20;;;24.58;;
59310;SDS011;45078;51.654;21.250;2024-03-02T12:10:32;62.60;;;25.67;;
59310;SDS011;45078;51.654;21.250;2024-03-02T12:13:05;61.70;;;26.25;;
59310;SDS011;45078;51.654;21.250;2024-03-02T12:15:33;62.08;;;23.02;;
59310;SDS011;45078;51.654;21.250;2024-03-02T12:18:02;55.80;;;24.48;;
59310;SDS011;45078;51.654;21.250;2024-03-02T12:20:29;42.25;;;16.00;;
59310;SDS011;45078;51.654;21.250;2024-03-02T12:22:57;58.75;;;25.02;;
59310;SDS011;45078;51.654;21.250;2024-03-02T12:25:24;41.15;;;18.92;;
59310;SDS011;45078;51.654;21.250;2024-03-02T12:27:51;53.05;;;22.08;;
59310;SDS011;45078;51.654;21.250;2024-03-02T12:30:21;40.95;;;19.10;;
59310;SDS011;45078;51.654;21.250;2024-03-02T12:32:47;38.97;;;18.60;;
59310;SDS011;45078;51.654;21.250;2024-03-02T12:35:14;52.17;;;23.17;;
59310;SDS011;45078;51.654;21.250;2024-03-02T12:37:49;60.45;;;25.02;;
59310;SDS011;45078;51.654;21.250;2024-03-02T12:40:17;46.72;;;20.58;;
59310;SDS011;45078;51.654;21.250;2024-03-02T12:42:44;50.60;;;22.58;;
59310;SDS011;45078;51.654;21.250;2024-03-02T12:45:11;28.40;;;14.27;;
59310;SDS011;45078;51.654;21.250;2024-03-02T12:47:39;50.22;;;23.35;;
59310;SDS011;45078;51.654;21.250;2024-03-02T12:50:05;45.83;;;20.08;;
59310;SDS011;45078;51.654;21.250;2024-03-02T12:52:32;51.35;;;22.25;;
59310;SDS011;45078;51.654;21.250;2024-03-02T12:55:02;51.55;;;21.70;;
59310;SDS011;45078;51.654;21.250;2024-03-02T12:57:32;52.75;;;22.63;;
59310;SDS011;45078;51.654;21.250;2024-03-02T12:59:58;57.67;;;23.95;;
59310;SDS011;45078;51.654;21.250;2024-03-02T13:02:27;47.05;;;23.08;;
59310;SDS011;45078;51.654;21.250;2024-03-02T13:04:57;51.88;;;22.42;;
59310;SDS011;45078;51.654;21.250;2024-03-02T13:07:23;44.47;;;20.55;;
59310;SDS011;45078;51.654;21.250;2024-03-02T13:09:50;41.20;;;18.58;;
59310;SDS011;45078;51.654;21.250;2024-03-02T13:12:17;46.88;;;21.88;;
59310;SDS011;45078;51.654;21.250;2024-03-02T13:14:44;56.47;;;22.00;;
59310;SDS011;45078;51.654;21.250;2024-03-02T13:17:12;42.60;;;15.93;;
59310;SDS011;45078;51.654;21.250;2024-03-02T13:19:43;53.53;;;21.95;;
59310;SDS011;45078;51.654;21.250;2024-03-02T13:22:32;56.25;;;24.52;;
59310;SDS011;45078;51.654;21.250;2024-03-02T13:25:01;36.63;;;17.90;;
59310;SDS011;45078;51.654;21.250;2024-03-02T13:27:30;60.90;;;22.50;;
59310;SDS011;45078;51.654;21.250;2024-03-02T13:29:57;47.80;;;22.67;;
59310;SDS011;45078;51.654;21.250;2024-03-02T13:32:23;57.17;;;24.17;;
59310;SDS011;45078;51.654;21.250;2024-03-02T13:34:50;42.63;;;18.27;;
59310;SDS011;45078;51.654;21.250;2024-03-02T13:37:16;37.03;;;19.27;;
59310;SDS011;45078;51.654;21.250;2024-03-02T13:39:42;57.13;;;23.10;;
59310;SDS011;45078;51.654;21.250;2024-03-02T13:42:11;38.10;;;17.30;;
59310;SDS011;45078;51.654;21.250;2024-03-02T13:44:39;29.83;;;12.25;;
59310;SDS011;45078;51.654;21.250;2024-03-02T13:47:05;40.58;;;19.65;;
59310;SDS011;45078;51.654;21.250;2024-03-02T13:49:31;33.70;;;15.68;;
59310;SDS011;45078;51.654;21.250;2024-03-02T13:52:02;31.40;;;14.30;;
59310;SDS011;45078;51.654;21.250;2024-03-02T13:54:36;52.97;;;20.98;;
59310;SDS011;45078;51.654;21.250;2024-03-02T13:57:07;24.83;;;12.20;;
59310;SDS011;45078;51.654;21.250;2024-03-02T13:59:34;52.58;;;21.08;;
59310;SDS011;45078;51.654;21.250;2024-03-02T14:02:04;33.92;;;14.05;;
59310;SDS011;45078;51.654;21.250;2024-03-02T14:04:33;51.33;;;21.45;;
59310;SDS011;45078;51.654;21.250;2024-03-02T14:06:59;42.75;;;18.33;;
59310;SDS011;45078;51.654;21.250;2024-03-02T14:09:25;38.80;;;19.13;;
59310;SDS011;45078;51.654;21.250;2024-03-02T14:11:52;46.78;;;22.25;;
59310;SDS011;45078;51.654;21.250;2024-03-02T14:14:18;46.80;;;21.75;;